createdAt,value
2023-02-05T00:00:06.613Z,18.50
2023-02-05T00:02:54.232Z,17.50
2023-02-05T00:05:22.188Z,18.10
2023-02-05T00:07:49.921Z,17.30
2023-02-05T00:10:17.694Z,19.50
2023-02-05T00:12:45.336Z,20.90
2023-02-05T00:15:13.013Z,20.50
2023-02-05T00:17:40.815Z,23.50
2023-02-05T00:20:09.687Z,22.40
2023-02-05T00:22:37.384Z,24.30
2023-02-05T00:25:05.677Z,33.90
2023-02-05T00:27:33.784Z,42.00
2023-02-05T00:30:01.444Z,41.40
2023-02-05T00:32:29.182Z,39.00
2023-02-05T00:34:57.360Z,29.60
2023-02-05T00:37:25.019Z,23.10
2023-02-05T00:39:52.647Z,19.70
2023-02-05T00:42:20.354Z,22.30
2023-02-05T00:44:48.781Z,23.80
2023-02-05T00:47:16.440Z,22.90
2023-02-05T00:49:44.170Z,24.50
2023-02-05T00:52:11.909Z,29.20
2023-02-05T00:54:39.665Z,33.20
2023-02-05T00:57:07.860Z,34.30
2023-02-05T00:59:35.572Z,31.90
2023-02-05T01:02:03.589Z,31.90
2023-02-05T01:04:31.700Z,27.20
2023-02-05T01:06:59.340Z,24.70
2023-02-05T01:09:27.105Z,24.20
2023-02-05T01:11:54.754Z,23.90
2023-02-05T01:14:22.432Z,24.10
2023-02-05T01:16:50.081Z,22.50
2023-02-05T01:19:17.771Z,22.10
2023-02-05T01:21:45.529Z,20.10
2023-02-05T01:24:13.356Z,19.40
2023-02-05T01:26:41.019Z,16.80
2023-02-05T01:29:09.056Z,16.10
2023-02-05T01:31:36.965Z,17.30
2023-02-05T01:34:04.627Z,17.60
2023-02-05T01:36:32.286Z,20.90
2023-02-05T01:38:59.951Z,21.30
2023-02-05T01:41:27.649Z,23.00
2023-02-05T01:44:04.987Z,20.90
2023-02-05T01:46:34.724Z,22.40
2023-02-05T01:49:03.102Z,24.30
2023-02-05T01:51:31.894Z,24.10
2023-02-05T01:53:59.874Z,24.80
2023-02-05T01:56:51.830Z,22.10
2023-02-05T01:59:22.087Z,23.60
2023-02-05T02:01:50.125Z,27.50
2023-02-05T02:04:38.469Z,27.50
2023-02-05T02:07:09.791Z,26.80
2023-02-05T02:09:38.977Z,25.10
2023-02-05T02:12:08.404Z,22.00
2023-02-05T02:14:37.257Z,23.70
2023-02-05T02:17:06.322Z,24.40
2023-02-05T02:19:42.589Z,25.10
2023-02-05T02:22:29.556Z,26.60
2023-02-05T02:25:23.525Z,28.70
2023-02-05T02:27:57.473Z,28.00
2023-02-05T02:30:35.974Z,27.40
2023-02-05T02:33:21.116Z,26.00
2023-02-05T02:35:56.486Z,25.70
2023-02-05T02:38:33.153Z,27.80
2023-02-05T02:41:09.998Z,24.90
2023-02-05T02:43:53.544Z,24.60
2023-02-05T02:46:42.599Z,24.90
2023-02-05T02:49:19.285Z,23.50
2023-02-05T02:51:48.602Z,26.40
2023-02-05T02:54:18.664Z,26.60
2023-02-05T02:56:47.416Z,26.30
2023-02-05T02:59:19.466Z,26.40
2023-02-05T03:01:54.087Z,26.70
2023-02-05T03:04:44.471Z,26.10
2023-02-05T03:07:21.124Z,26.80
2023-02-05T03:09:56.982Z,25.90
2023-02-05T03:12:24.716Z,24.70
2023-02-05T03:14:52.949Z,24.30
2023-02-05T03:17:21.598Z,24.50
2023-02-05T03:20:02.437Z,25.50
2023-02-05T03:22:30.142Z,23.70
2023-02-05T03:24:57.891Z,23.60
2023-02-05T03:27:25.881Z,23.00
2023-02-05T03:29:54.405Z,22.50
2023-02-05T03:32:53.629Z,22.80
2023-02-05T03:35:39.296Z,21.80
2023-02-05T03:38:10.827Z,20.80
2023-02-05T03:41:07.320Z,20.20
2023-02-05T03:43:56.933Z,24.50
2023-02-05T03:47:03.639Z,24.00
2023-02-05T03:49:34.271Z,25.50
2023-02-05T03:52:07.255Z,24.80
2023-02-05T03:54:55.845Z,23.60
2023-02-05T03:57:54.826Z,20.70
2023-02-05T04:00:25.126Z,18.70
2023-02-05T04:02:53.465Z,19.00
2023-02-05T04:05:23.545Z,19.00
2023-02-05T04:07:53.459Z,20.80
2023-02-05T04:10:22.942Z,20.70
2023-02-05T04:12:51.434Z,20.00
2023-02-05T04:15:19.724Z,19.60
2023-02-05T04:17:49.826Z,19.10
2023-02-05T04:20:17.757Z,18.20
2023-02-05T04:22:45.404Z,18.10
2023-02-05T04:25:13.063Z,18.50
2023-02-05T04:27:41.192Z,17.40
2023-02-05T04:30:09.909Z,17.80
2023-02-05T04:32:39.669Z,17.30
2023-02-05T04:35:07.526Z,17.20
2023-02-05T04:37:35.236Z,16.70
2023-02-05T04:40:03.174Z,16.80
2023-02-05T04:42:30.849Z,16.70
2023-02-05T04:44:58.586Z,16.00
2023-02-05T04:47:26.214Z,15.30
2023-02-05T04:49:53.855Z,15.80
2023-02-05T04:52:21.521Z,15.50
2023-02-05T04:54:49.168Z,15.90
2023-02-05T04:57:16.813Z,14.80
2023-02-05T04:59:44.481Z,13.40
2023-02-05T05:02:13.015Z,13.10
2023-02-05T05:04:43.045Z,14.90
2023-02-05T05:07:10.862Z,14.90
2023-02-05T05:09:38.577Z,13.10
2023-02-05T05:12:06.425Z,13.50
2023-02-05T05:14:34.140Z,12.70
2023-02-05T05:17:01.808Z,11.50
2023-02-05T05:19:29.460Z,12.50
2023-02-05T05:21:57.121Z,11.50
2023-02-05T05:24:24.885Z,11.40
2023-02-05T05:26:52.514Z,11.40
2023-02-05T05:29:20.173Z,12.30
2023-02-05T05:31:47.894Z,11.90
2023-02-05T05:34:15.600Z,12.40
2023-02-05T05:36:43.736Z,12.00
2023-02-05T05:39:30.477Z,11.70
2023-02-05T05:42:17.181Z,11.80
2023-02-05T05:44:44.862Z,12.00
2023-02-05T05:47:12.501Z,13.60
2023-02-05T05:49:40.193Z,12.90
2023-02-05T05:52:07.842Z,13.20
2023-02-05T05:54:35.560Z,13.00
2023-02-05T05:57:03.879Z,12.90
2023-02-05T05:59:31.516Z,15.50
2023-02-05T06:02:01.951Z,14.80
2023-02-05T06:04:30.380Z,13.90
2023-02-05T06:06:59.251Z,15.40
2023-02-05T06:09:26.874Z,13.70
2023-02-05T06:11:55.012Z,14.40
2023-02-05T06:14:22.745Z,14.30
2023-02-05T06:16:51.999Z,13.60
2023-02-05T06:19:19.681Z,13.10
2023-02-05T06:21:47.339Z,13.60
2023-02-05T06:24:14.947Z,13.70
2023-02-05T06:26:42.596Z,14.10
2023-02-05T06:29:10.235Z,13.70
2023-02-05T06:31:37.961Z,14.50
2023-02-05T06:34:05.661Z,15.10
2023-02-05T06:36:33.344Z,13.80
2023-02-05T06:39:01.028Z,14.20
2023-02-05T06:41:28.681Z,14.10
2023-02-05T06:43:56.350Z,13.60
2023-02-05T06:46:24.077Z,14.30
2023-02-05T06:48:51.871Z,14.90
2023-02-05T06:51:19.588Z,14.10
2023-02-05T06:53:47.257Z,15.30
2023-02-05T06:56:14.929Z,15.80
2023-02-05T06:58:42.585Z,15.20
2023-02-05T07:01:10.224Z,16.30
2023-02-05T07:03:37.877Z,15.60
2023-02-05T07:06:06.711Z,15.60
2023-02-05T07:08:34.830Z,15.80
2023-02-05T07:11:02.733Z,16.60
2023-02-05T07:13:30.397Z,16.10
2023-02-05T07:16:03.033Z,16.00
2023-02-05T07:18:32.689Z,15.60
2023-02-05T07:21:00.958Z,16.90
2023-02-05T07:23:28.594Z,17.10
2023-02-05T07:25:56.340Z,16.60
2023-02-05T07:28:24.069Z,15.90
2023-02-05T07:30:51.736Z,17.10
2023-02-05T07:33:19.462Z,16.90
2023-02-05T07:35:47.152Z,16.50
2023-02-05T07:38:14.810Z,16.70
2023-02-05T07:40:42.462Z,16.70
2023-02-05T07:43:10.150Z,16.50
2023-02-05T07:45:37.830Z,17.50
2023-02-05T07:48:05.628Z,17.30
2023-02-05T07:50:33.379Z,16.20
2023-02-05T07:53:01.374Z,17.30
2023-02-05T07:55:29.392Z,15.80
2023-02-05T07:57:57.102Z,15.80
2023-02-05T08:00:24.962Z,15.60
2023-02-05T08:02:52.546Z,14.40
2023-02-05T08:05:20.508Z,15.60
2023-02-05T08:07:48.443Z,15.90
2023-02-05T08:10:16.338Z,14.40
2023-02-05T08:12:44.449Z,14.80
2023-02-05T08:15:12.066Z,16.10
2023-02-05T08:17:40.164Z,16.00
2023-02-05T08:20:08.529Z,17.50
2023-02-05T08:22:38.752Z,17.40
2023-02-05T08:25:08.362Z,17.10
2023-02-05T08:27:37.721Z,15.20
2023-02-05T08:30:08.132Z,14.70
2023-02-05T08:32:37.004Z,15.20
2023-02-05T08:35:05.257Z,15.10
2023-02-05T08:37:33.138Z,14.50
2023-02-05T08:40:00.867Z,13.40
2023-02-05T08:42:28.602Z,12.80
2023-02-05T08:44:58.544Z,12.70
2023-02-05T08:47:26.913Z,13.20
2023-02-05T08:49:54.741Z,11.70
2023-02-05T08:52:22.479Z,13.10
2023-02-05T08:54:50.235Z,12.80
2023-02-05T08:57:18.341Z,12.40
2023-02-05T08:59:46.072Z,11.90
2023-02-05T09:02:16.886Z,11.40
2023-02-05T09:04:44.597Z,12.20
2023-02-05T09:07:12.277Z,12.20
2023-02-05T09:09:39.999Z,12.40
2023-02-05T09:12:07.855Z,12.40
2023-02-05T09:14:38.164Z,11.90
2023-02-05T09:17:07.835Z,12.00
2023-02-05T09:19:37.901Z,10.90
2023-02-05T09:22:06.309Z,10.60
2023-02-05T09:24:34.540Z,10.90
2023-02-05T09:27:02.228Z,9.40
2023-02-05T09:29:30.393Z,10.90
2023-02-05T09:31:58.804Z,10.20
2023-02-05T09:34:26.686Z,10.10
2023-02-05T09:36:54.340Z,9.70
2023-02-05T09:40:01.970Z,10.50
2023-02-05T09:42:35.646Z,10.50
2023-02-05T09:45:24.988Z,9.60
2023-02-05T09:48:15.535Z,10.30
2023-02-05T09:50:43.684Z,10.70
2023-02-05T09:53:14.276Z,10.30
2023-02-05T09:55:47.051Z,10.20
2023-02-05T09:58:21.616Z,10.20
2023-02-05T10:00:53.217Z,10.00
2023-02-05T10:03:32.076Z,10.40
2023-02-05T10:06:30.588Z,10.00
2023-02-05T10:09:07.150Z,10.00
2023-02-05T10:11:46.641Z,9.80
2023-02-05T10:14:39.334Z,10.10
2023-02-05T10:17:21.556Z,9.60
2023-02-05T10:20:44.898Z,10.60
2023-02-05T10:23:18.458Z,10.20
2023-02-05T10:26:05.097Z,9.90
2023-02-05T10:28:54.054Z,10.40
2023-02-05T10:31:43.920Z,10.00
2023-02-05T10:34:25.397Z,9.70
2023-02-05T10:36:53.857Z,9.90
2023-02-05T10:39:25.288Z,9.40
2023-02-05T10:42:24.848Z,10.40
2023-02-05T10:45:02.052Z,9.90
2023-02-05T10:47:29.974Z,10.30
2023-02-05T10:50:01.540Z,10.20
2023-02-05T10:52:29.333Z,10.80
2023-02-05T10:54:57.006Z,11.30
2023-02-05T10:57:25.598Z,11.20
2023-02-05T10:59:59.284Z,10.90
2023-02-05T11:02:33.341Z,10.60
2023-02-05T11:05:03.560Z,11.30
2023-02-05T11:07:39.655Z,11.70
2023-02-05T11:10:15.081Z,8.50
2023-02-05T11:12:48.903Z,8.30
2023-02-05T11:15:26.632Z,7.70
2023-02-05T11:18:03.689Z,8.90
2023-02-05T11:20:38.946Z,8.70
2023-02-05T11:23:18.600Z,8.40
2023-02-05T11:26:00.605Z,8.20
2023-02-05T11:28:33.232Z,10.30
2023-02-05T11:31:28.749Z,10.00
2023-02-05T11:34:08.864Z,9.80
2023-02-05T11:36:39.034Z,8.50
2023-02-05T11:39:07.281Z,8.70
2023-02-05T11:41:48.606Z,7.50
2023-02-05T11:44:23.945Z,8.60
2023-02-05T11:46:57.598Z,7.40
2023-02-05T11:49:32.841Z,7.00
2023-02-05T11:52:05.001Z,6.40
2023-02-05T11:54:33.936Z,6.90
2023-02-05T11:57:05.313Z,7.00
2023-02-05T11:59:34.162Z,5.70
2023-02-05T12:02:25.472Z,5.70
2023-02-05T12:04:58.964Z,5.10
2023-02-05T12:07:29.813Z,5.80
2023-02-05T12:09:59.768Z,4.40
2023-02-05T12:12:51.840Z,5.00
2023-02-05T12:15:40.555Z,5.50
2023-02-05T12:18:50.404Z,4.70
2023-02-05T12:21:30.192Z,3.90
2023-02-05T12:24:16.589Z,6.20
2023-02-05T12:26:45.675Z,20.90
2023-02-05T12:29:51.597Z,3.40
2023-02-05T12:32:31.568Z,3.60
2023-02-05T12:35:17.912Z,3.60
2023-02-05T12:38:06.449Z,3.70
2023-02-05T12:40:54.493Z,4.60
2023-02-05T12:43:30.239Z,4.90
2023-02-05T12:45:57.928Z,5.10
2023-02-05T12:48:40.788Z,4.60
2023-02-05T12:51:42.158Z,5.60
2023-02-05T12:54:42.602Z,4.90
2023-02-05T12:57:13.534Z,4.50
2023-02-05T12:59:43.886Z,5.70
2023-02-05T13:02:19.930Z,5.60
2023-02-05T13:05:10.882Z,5.60
2023-02-05T13:07:45.709Z,6.20
2023-02-05T13:10:21.350Z,5.40
2023-02-05T13:12:53.246Z,5.60
2023-02-05T13:15:24.206Z,5.70
2023-02-05T13:17:58.820Z,5.80
2023-02-05T13:21:16.627Z,5.00
2023-02-05T13:24:04.082Z,5.60
2023-02-05T13:27:01.413Z,5.50
2023-02-05T13:29:32.182Z,6.30
2023-02-05T13:32:15.591Z,5.40
2023-02-05T13:34:43.927Z,4.80
2023-02-05T13:37:31.822Z,5.20
2023-02-05T13:40:21.189Z,5.80
2023-02-05T13:43:18.088Z,5.80
2023-02-05T13:46:04.963Z,5.80
2023-02-05T13:49:32.469Z,6.80
2023-02-05T13:52:26.938Z,5.70
2023-02-05T13:55:01.457Z,5.90
2023-02-05T13:57:57.447Z,6.60
2023-02-05T14:00:25.903Z,7.00
2023-02-05T14:02:55.796Z,6.10
2023-02-05T14:05:40.800Z,7.60
2023-02-05T14:08:21.720Z,9.10
2023-02-05T14:11:00.812Z,8.30
2023-02-05T14:13:34.370Z,7.50
2023-02-05T14:16:23.877Z,6.60
2023-02-05T14:19:00.215Z,6.40
2023-02-05T14:21:30.826Z,6.90
2023-02-05T14:24:18.366Z,7.20
2023-02-05T14:26:53.580Z,8.60
2023-02-05T14:29:43.665Z,7.60
2023-02-05T14:32:13.252Z,9.50
2023-02-05T14:34:40.870Z,7.80
2023-02-05T14:37:31.119Z,8.70
2023-02-05T14:39:59.585Z,8.60
2023-02-05T14:42:29.516Z,11.20
2023-02-05T14:44:57.850Z,12.40
2023-02-05T14:47:28.847Z,13.50
2023-02-05T14:50:11.390Z,12.00
2023-02-05T14:52:53.203Z,10.60
2023-02-05T14:55:26.669Z,10.10
2023-02-05T14:57:56.937Z,9.90
2023-02-05T15:00:34.605Z,11.70
2023-02-05T15:03:05.022Z,12.70
2023-02-05T15:05:42.076Z,11.70
2023-02-05T15:08:34.498Z,11.50
2023-02-05T15:11:43.665Z,11.00
2023-02-05T15:14:20.988Z,13.40
2023-02-05T15:17:10.768Z,14.30
2023-02-05T15:20:22.050Z,13.90
2023-02-05T15:22:53.850Z,13.60
2023-02-05T15:25:21.446Z,13.70
2023-02-05T15:27:55.716Z,13.40
2023-02-05T15:30:26.242Z,14.90
2023-02-05T15:33:03.842Z,14.00
2023-02-05T15:35:33.408Z,14.40
2023-02-05T15:38:35.424Z,16.20
2023-02-05T15:41:06.771Z,16.10
2023-02-05T15:43:34.438Z,21.20
2023-02-05T15:46:07.127Z,21.90
2023-02-05T15:48:36.805Z,21.00
2023-02-05T15:51:17.720Z,21.00
2023-02-05T15:53:50.252Z,20.80
2023-02-05T15:56:20.806Z,21.60
2023-02-05T15:58:58.852Z,19.10
2023-02-05T16:01:29.979Z,20.60
2023-02-05T16:03:57.913Z,20.10
2023-02-05T16:06:27.471Z,27.70
2023-02-05T16:08:55.763Z,33.10
2023-02-05T16:11:34.725Z,29.50
2023-02-05T16:14:10.541Z,27.90
2023-02-05T16:16:41.714Z,20.20
2023-02-05T16:19:17.281Z,20.30
2023-02-05T16:21:55.643Z,23.10
2023-02-05T16:24:29.535Z,25.30
2023-02-05T16:27:04.771Z,25.10
2023-02-05T16:29:48.026Z,30.20
2023-02-05T16:32:23.680Z,31.70
2023-02-05T16:34:51.386Z,27.70
2023-02-05T16:37:19.452Z,47.20
2023-02-05T16:39:55.098Z,53.90
2023-02-05T16:42:25.572Z,51.70
2023-02-05T16:45:08.316Z,50.40
2023-02-05T16:47:37.020Z,50.80
2023-02-05T16:50:43.698Z,44.80
2023-02-05T16:53:26.367Z,51.40
2023-02-05T16:56:01.906Z,44.30
2023-02-05T16:58:37.757Z,50.60
2023-02-05T17:01:05.590Z,47.10
2023-02-05T17:03:39.534Z,44.50
2023-02-05T17:06:14.805Z,45.00
2023-02-05T17:08:45.371Z,43.30
2023-02-05T17:11:33.260Z,50.10
2023-02-05T17:14:25.999Z,40.50
2023-02-05T17:16:59.654Z,40.70
2023-02-05T17:19:30.960Z,42.20
2023-02-05T17:22:13.758Z,40.30
2023-02-05T17:24:43.570Z,37.00
2023-02-05T17:27:18.512Z,37.30
2023-02-05T17:29:46.258Z,33.80
2023-02-05T17:32:18.865Z,32.50
2023-02-05T17:34:46.965Z,29.90
2023-02-05T17:37:15.268Z,30.80
2023-02-05T17:39:42.995Z,29.70
2023-02-05T17:42:36.936Z,30.70
2023-02-05T17:45:18.688Z,31.10
2023-02-05T17:47:46.641Z,33.40
2023-02-05T17:50:14.820Z,31.60
2023-02-05T17:52:44.025Z,31.90
2023-02-05T17:55:17.182Z,31.10
2023-02-05T17:57:45.748Z,30.50
2023-02-05T18:00:19.904Z,31.10
2023-02-05T18:02:47.580Z,32.40
2023-02-05T18:05:15.727Z,31.40
2023-02-05T18:07:50.027Z,31.40
2023-02-05T18:10:23.283Z,30.30
2023-02-05T18:12:51.718Z,30.30
2023-02-05T18:15:19.796Z,33.90
2023-02-05T18:17:47.533Z,33.00
2023-02-05T18:20:16.174Z,33.40
2023-02-05T18:22:43.934Z,36.00
2023-02-05T18:25:11.577Z,33.30
2023-02-05T18:27:39.396Z,31.30
2023-02-05T18:30:07.933Z,35.40
2023-02-05T18:32:35.737Z,38.30
2023-02-05T18:35:04.114Z,38.10
2023-02-05T18:37:31.745Z,38.50
2023-02-05T18:39:59.414Z,36.10
2023-02-05T18:42:27.333Z,41.10
2023-02-05T18:44:54.981Z,34.60
2023-02-05T18:47:22.636Z,30.40
2023-02-05T18:49:50.281Z,33.30
2023-02-05T18:52:18.520Z,32.00
2023-02-05T18:54:46.351Z,33.70
2023-02-05T18:57:14.012Z,37.00
2023-02-05T18:59:41.777Z,35.90
2023-02-05T19:02:13.081Z,41.00
2023-02-05T19:04:41.739Z,36.00
2023-02-05T19:07:09.518Z,36.50
2023-02-05T19:09:37.285Z,43.70
2023-02-05T19:12:05.115Z,48.20
2023-02-05T19:14:32.874Z,55.20
2023-02-05T19:17:00.535Z,60.30
2023-02-05T19:19:29.506Z,40.20
2023-02-05T19:22:02.100Z,56.50
2023-02-05T19:24:29.989Z,48.50
2023-02-05T19:26:59.199Z,52.40
2023-02-05T19:29:27.123Z,51.80
2023-02-05T19:31:55.068Z,40.70
2023-02-05T19:34:23.555Z,37.80
2023-02-05T19:36:51.626Z,36.50
2023-02-05T19:39:19.427Z,37.60
2023-02-05T19:41:48.420Z,35.90
2023-02-05T19:44:16.421Z,34.70
2023-02-05T19:46:44.271Z,39.00
2023-02-05T19:49:15.472Z,39.80
2023-02-05T19:51:47.851Z,44.10
2023-02-05T19:54:16.022Z,42.10
2023-02-05T19:56:44.582Z,40.90
2023-02-05T19:59:12.712Z,37.40
2023-02-05T20:01:43.606Z,39.90
2023-02-05T20:04:17.623Z,40.80
2023-02-05T20:06:47.032Z,55.60
2023-02-05T20:09:16.144Z,53.90
2023-02-05T20:11:49.214Z,32.70
2023-02-05T20:14:17.528Z,31.50
2023-02-05T20:16:45.918Z,33.00
2023-02-05T20:19:15.670Z,35.00
2023-02-05T20:21:43.872Z,35.50
2023-02-05T20:24:12.060Z,35.70
2023-02-05T20:26:40.116Z,35.70
2023-02-05T20:29:26.750Z,35.40
2023-02-05T20:31:54.961Z,35.80
2023-02-05T20:34:25.989Z,36.00
2023-02-05T20:36:59.684Z,35.10
2023-02-05T20:39:29.148Z,34.50
2023-02-05T20:41:58.525Z,36.90
2023-02-05T20:44:27.758Z,39.30
2023-02-05T20:46:55.971Z,38.40
2023-02-05T20:49:23.883Z,39.70
2023-02-05T20:51:53.044Z,40.20
2023-02-05T20:54:22.201Z,39.40
2023-02-05T20:56:51.227Z,37.80
2023-02-05T20:59:19.496Z,40.40
2023-02-05T21:01:47.496Z,37.00
2023-02-05T21:04:15.238Z,36.10
2023-02-05T21:06:43.211Z,35.50
2023-02-05T21:09:10.947Z,33.80
2023-02-05T21:11:39.434Z,32.80
2023-02-05T21:14:08.232Z,32.60
2023-02-05T21:16:37.173Z,29.90
2023-02-05T21:19:06.765Z,29.50
2023-02-05T21:21:36.216Z,28.70
2023-02-05T21:24:07.604Z,27.90
2023-02-05T21:26:37.795Z,29.60
2023-02-05T21:29:13.835Z,28.30
2023-02-05T21:31:45.037Z,28.50
2023-02-05T21:34:15.703Z,30.50
2023-02-05T21:36:43.861Z,30.20
2023-02-05T21:39:12.282Z,30.90
2023-02-05T21:41:39.947Z,32.00
2023-02-05T21:44:07.638Z,32.20
2023-02-05T21:46:35.340Z,40.80
2023-02-05T21:49:04.039Z,38.20
2023-02-05T21:51:34.600Z,33.90
2023-02-05T21:54:04.967Z,37.40
2023-02-05T21:56:38.320Z,37.50
2023-02-05T21:59:06.489Z,37.00
2023-02-05T22:01:36.163Z,40.60
2023-02-05T22:04:08.629Z,44.60
2023-02-05T22:06:36.788Z,48.50
2023-02-05T22:09:06.686Z,50.30
2023-02-05T22:11:34.962Z,52.00
2023-02-05T22:14:02.652Z,45.70
2023-02-05T22:16:32.507Z,41.50
2023-02-05T22:19:01.482Z,38.00
2023-02-05T22:21:31.824Z,41.10
2023-02-05T22:24:01.307Z,46.20
2023-02-05T22:26:31.881Z,46.40
2023-02-05T22:29:00.792Z,45.10
2023-02-05T22:31:32.716Z,48.70
2023-02-05T22:34:00.876Z,40.00
2023-02-05T22:36:30.811Z,36.40
2023-02-05T22:38:59.002Z,42.90
2023-02-05T22:41:27.808Z,40.60
2023-02-05T22:43:57.644Z,40.40
2023-02-05T22:46:27.786Z,46.10
2023-02-05T22:48:56.236Z,42.20
2023-02-05T22:51:26.641Z,47.30
2023-02-05T22:53:54.928Z,41.10
2023-02-05T22:56:23.210Z,44.80
2023-02-05T22:58:52.389Z,46.20
2023-02-05T23:01:22.758Z,40.80
2023-02-05T23:03:52.027Z,47.60
2023-02-05T23:06:22.745Z,48.00
2023-02-05T23:08:56.558Z,48.60
2023-02-05T23:11:25.326Z,45.00
2023-02-05T23:13:53.013Z,43.60
2023-02-05T23:16:26.801Z,38.10
2023-02-05T23:19:00.580Z,38.60
2023-02-05T23:21:29.974Z,47.60
2023-02-05T23:23:57.675Z,53.50
2023-02-05T23:26:27.631Z,47.60
2023-02-05T23:28:56.671Z,51.80
2023-02-05T23:31:25.398Z,56.20
2023-02-05T23:33:53.926Z,52.90
2023-02-05T23:36:21.844Z,48.90
2023-02-05T23:38:49.528Z,58.50
2023-02-05T23:41:35.820Z,53.50
2023-02-05T23:44:14.830Z,64.50
2023-02-05T23:46:43.706Z,58.90
2023-02-05T23:49:12.269Z,54.30
2023-02-05T23:51:40.728Z,62.80
2023-02-05T23:54:10.311Z,54.60
2023-02-05T23:56:38.224Z,61.40
2023-02-05T23:59:07.309Z,52.00
